Time;durP1;ratioP1;P1;durP2;ratioP2;P2;SDS_P1;SDS_P2;PMS_P1;PMS_P2;Temp;Humidity;BMP_temperature;BMP_pressure;BME280_temperature;BME280_humidity;BME280_pressure;Samples;Min_cycle;Max_cycle;Signal;HPM_P1;HPM_P2
2023/08/27 00:01:21;;;;;;;7.18;3.90;;;;;;;-145.69;58.13;51969.13;5137131;27;20284;-82
2023/08/27 00:03:47;;;;;;;7.40;4.30;;;;;;;-145.69;58.10;51939.41;5136811;27;20196;-83
2023/08/27 00:06:15;;;;;;;8.02;4.78;;;;;;;-145.69;57.79;51957.25;5136473;27;20710;-82
2023/08/27 00:08:41;;;;;;;8.73;4.00;;;;;;;-145.69;58.55;51953.28;5137026;27;20274;-82
2023/08/27 00:11:08;;;;;;;9.65;4.60;;;;;;;-145.69;58.03;51959.22;5136743;27;20204;-82
2023/08/27 00:13:34;;;;;;;5.68;3.60;;;;;;;-145.69;58.29;51961.19;5136313;27;20212;-83
2023/08/27 00:16:01;;;;;;;5.90;3.70;;;;;;;-145.69;58.56;51953.28;5136171;27;20227;-82
2023/08/27 00:18:27;;;;;;;6.63;3.95;;;;;;;-145.69;58.02;51947.34;5136446;27;20528;-82
2023/08/27 00:20:55;;;;;;;6.68;3.80;;;;;;;-145.69;58.16;51925.56;5136444;27;20231;-82
2023/08/27 00:23:23;;;;;;;5.28;3.80;;;;;;;-145.69;58.21;51949.31;5136412;27;20546;-82
2023/08/27 00:25:50;;;;;;;9.10;3.80;;;;;;;-145.69;58.11;51927.53;5136379;27;20274;-82
2023/08/27 00:28:16;;;;;;;6.72;3.88;;;;;;;-145.69;58.38;51927.53;5136009;27;20219;-82
2023/08/27 00:30:43;;;;;;;4.30;3.38;;;;;;;-145.69;58.25;51977.03;5136072;27;20207;-83
2023/08/27 00:33:10;;;;;;;9.13;4.30;;;;;;;-145.69;58.17;51961.19;5136092;27;20223;-82
2023/08/27 00:35:37;;;;;;;7.15;3.90;;;;;;;-145.69;57.89;51969.13;5136125;27;20228;-82
2023/08/27 00:38:05;;;;;;;7.25;4.22;;;;;;;-145.69;57.32;51917.63;5135917;27;20636;-83
2023/08/27 00:40:33;;;;;;;10.85;4.50;;;;;;;-145.69;57.00;51935.47;5135505;27;20184;-83
2023/08/27 00:43:00;;;;;;;7.18;4.10;;;;;;;-145.69;56.63;51933.47;5135713;27;20247;-82
2023/08/27 00:45:27;;;;;;;6.15;3.58;;;;;;;-145.69;57.44;51889.91;5136211;27;20204;-82
2023/08/27 00:47:53;;;;;;;4.40;3.35;;;;;;;-145.69;57.59;51927.53;5134624;27;20231;-82
2023/08/27 00:50:20;;;;;;;7.30;3.90;;;;;;;-145.69;57.23;51953.28;5135734;27;20200;-82
2023/08/27 00:52:47;;;;;;;6.88;3.88;;;;;;;-145.69;56.88;51913.69;5135854;27;20201;-82
2023/08/27 00:55:14;;;;;;;7.03;3.72;;;;;;;-145.69;57.42;51939.41;5135716;27;20192;-82
2023/08/27 00:57:43;;;;;;;4.80;3.20;;;;;;;-145.69;56.90;51903.78;5135714;27;20200;-82
2023/08/27 01:00:10;;;;;;;9.07;4.18;;;;;;;-145.69;57.03;51933.47;5135375;27;20204;-82
2023/08/27 01:02:38;;;;;;;8.15;3.80;;;;;;;-145.69;57.65;51951.28;5135524;27;20253;-82
2023/08/27 01:05:05;;;;;;;11.35;3.60;;;;;;;-145.69;57.58;51933.47;5135423;27;20269;-82
2023/08/27 01:11:08;;;;;;;6.25;4.00;;;;;;;-145.69;56.77;51945.34;5122467;27;20238;-82
2023/08/27 01:13:45;;;;;;;6.70;3.88;;;;;;;-145.69;56.84;51919.63;5135266;27;20201;-82
2023/08/27 01:16:12;;;;;;;4.85;3.03;;;;;;;-145.69;56.95;51921.59;5134857;27;20199;-82
2023/08/27 01:18:39;;;;;;;10.00;3.85;;;;;;;-145.69;57.63;51949.31;5135238;27;20199;-82
2023/08/27 01:21:20;;;;;;;7.07;3.70;;;;;;;-145.69;56.27;51937.44;5135116;27;20196;-83
2023/08/27 01:23:46;;;;;;;5.20;3.50;;;;;;;-145.69;57.40;51941.41;5117263;27;20197;-82
2023/08/27 01:26:18;;;;;;;7.45;3.97;;;;;;;-145.69;57.16;51937.44;5134886;27;20189;-82
2023/08/27 01:28:48;;;;;;;5.45;3.67;;;;;;;-145.69;56.82;51959.22;5135208;27;20197;-82
2023/08/27 01:31:20;;;;;;;4.70;3.30;;;;;;;-145.69;56.33;51921.59;5134385;27;20204;-82
2023/08/27 01:33:49;;;;;;;7.47;3.60;;;;;;;-145.69;56.17;51949.31;5135025;27;20197;-82
2023/08/27 01:36:17;;;;;;;7.63;3.13;;;;;;;-145.69;56.55;51903.78;5134857;27;20276;-82
2023/08/27 01:38:45;;;;;;;5.95;3.25;;;;;;;-145.69;55.87;51939.41;5134856;27;20203;-82
2023/08/27 01:41:11;;;;;;;4.60;3.10;;;;;;;-145.69;55.72;51945.34;5133915;27;20204;-82
2023/08/27 01:43:38;;;;;;;3.45;3.00;;;;;;;-145.69;55.95;51961.19;5116208;27;20221;-82
2023/08/27 01:46:04;;;;;;;6.65;3.10;;;;;;;-145.69;56.58;51957.25;5115633;27;20204;-82
2023/08/27 01:48:31;;;;;;;3.53;2.88;;;;;;;-145.69;56.17;51913.69;5134299;27;20200;-83
2023/08/27 01:50:57;;;;;;;4.72;3.42;;;;;;;-145.69;56.25;51945.34;5134821;27;20192;-82
2023/08/27 01:53:24;;;;;;;9.85;3.70;;;;;;;-145.69;55.74;51909.72;5134594;27;20200;-82
2023/08/27 01:55:52;;;;;;;5.88;3.47;;;;;;;-145.69;56.69;51941.41;5134679;27;20200;-82
2023/08/27 01:58:18;;;;;;;7.68;3.17;;;;;;;-145.69;56.72;51941.41;5134164;27;20196;-82
2023/08/27 02:00:45;;;;;;;6.35;3.60;;;;;;;-145.69;56.53;51917.63;5134222;27;20193;-82
2023/08/27 02:03:11;;;;;;;10.70;3.20;;;;;;;-145.69;56.32;51969.13;5133979;27;20201;-83
2023/08/27 02:05:37;;;;;;;3.90;2.75;;;;;;;-145.69;56.36;51953.28;5134465;27;20671;-83
2023/08/27 02:08:04;;;;;;;6.72;3.30;;;;;;;-145.69;56.57;51935.47;5133859;27;20228;-82
2023/08/27 02:10:31;;;;;;;6.40;3.70;;;;;;;-145.69;56.80;51911.69;5134593;27;20533;-82
2023/08/27 02:12:58;;;;;;;7.68;3.40;;;;;;;-145.69;56.32;51951.28;5133483;27;20192;-82
2023/08/27 02:15:25;;;;;;;8.20;3.90;;;;;;;-145.69;56.00;51921.59;5134343;27;20212;-82
2023/08/27 02:17:51;;;;;;;5.43;3.45;;;;;;;-145.69;56.65;51935.47;5133767;27;20200;-81
2023/08/27 02:20:18;;;;;;;4.03;2.95;;;;;;;-145.69;56.72;51923.56;5134298;27;20208;-82
2023/08/27 02:22:45;;;;;;;5.47;3.65;;;;;;;-145.69;56.42;51955.25;5134062;27;20555;-82
2023/08/27 02:25:12;;;;;;;7.13;3.33;;;;;;;-145.69;56.67;51963.19;5134151;27;20193;-82
2023/08/27 02:27:39;;;;;;;5.55;3.78;;;;;;;-145.69;56.75;51911.69;5133522;27;20322;-82
2023/08/27 02:30:08;;;;;;;5.65;3.20;;;;;;;-145.69;56.58;51929.50;5133819;27;20203;-82
2023/08/27 02:32:35;;;;;;;4.28;3.05;;;;;;;-145.69;56.50;51947.34;5133960;27;20211;-82
2023/08/27 02:35:02;;;;;;;5.93;3.15;;;;;;;-145.69;56.55;51949.31;5133746;27;20196;-82
2023/08/27 02:37:28;;;;;;;8.00;4.15;;;;;;;-145.69;56.85;51921.59;5133672;27;20283;-83
2023/08/27 02:39:55;;;;;;;4.88;3.42;;;;;;;-145.69;56.52;51971.09;5133871;27;20208;-82
2023/08/27 02:42:21;;;;;;;4.40;3.08;;;;;;;-145.69;56.83;51937.44;5133168;27;20231;-82
2023/08/27 02:44:48;;;;;;;5.90;3.60;;;;;;;-145.69;56.80;51949.31;5133860;27;20203;-83
2023/08/27 02:47:15;;;;;;;5.30;3.65;;;;;;;-145.69;56.84;51943.38;5133405;27;20217;-82
2023/08/27 02:49:42;;;;;;;11.70;4.00;;;;;;;-145.69;56.95;51937.44;5133951;28;20207;-82
2023/08/27 02:52:08;;;;;;;8.32;4.15;;;;;;;-145.69;56.39;51945.34;5133561;28;20210;-82
2023/08/27 02:54:35;;;;;;;4.13;3.03;;;;;;;-145.69;57.20;51957.25;5133671;27;20207;-82
2023/08/27 02:57:01;;;;;;;8.10;3.20;;;;;;;-145.69;57.14;51943.38;5133768;28;20585;-82
2023/08/27 02:59:28;;;;;;;5.20;2.95;;;;;;;-145.69;57.19;51959.22;5133584;27;20669;-81
2023/08/27 03:01:54;;;;;;;6.05;3.40;;;;;;;-145.69;57.35;51953.28;5133607;28;20197;-82
2023/08/27 03:04:22;;;;;;;4.88;3.25;;;;;;;-145.69;57.14;51933.47;5133640;27;20200;-82
2023/08/27 03:06:49;;;;;;;7.30;3.60;;;;;;;-145.69;56.60;51961.19;5133236;27;20228;-81
2023/08/27 03:09:15;;;;;;;5.03;3.20;;;;;;;-145.69;56.74;51921.59;5133603;27;20196;-81
2023/08/27 03:11:42;;;;;;;9.45;3.45;;;;;;;-145.69;56.14;51941.41;5133101;27;20203;-82
2023/08/27 03:14:08;;;;;;;5.18;3.30;;;;;;;-145.69;56.09;51925.56;5133684;27;20220;-83
2023/08/27 03:16:36;;;;;;;7.68;3.80;;;;;;;-145.69;57.10;51917.63;5133675;27;20188;-83
2023/08/27 03:19:03;;;;;;;4.68;3.22;;;;;;;-145.69;56.72;51943.38;5133967;28;20619;-82
2023/08/27 03:21:31;;;;;;;4.40;3.35;;;;;;;-145.69;56.80;51965.16;5133243;28;20189;-82
2023/08/27 03:23:58;;;;;;;2.72;2.10;;;;;;;-145.69;57.10;51945.34;5133470;27;20211;-81
2023/08/27 03:26:24;;;;;;;3.70;2.20;;;;;;;-145.69;57.28;51937.44;5136788;27;20636;-81
2023/08/27 03:28:51;;;;;;;3.03;2.20;;;;;;;-145.69;56.88;51969.13;5137513;27;20224;-81
2023/08/27 03:31:17;;;;;;;7.57;2.67;;;;;;;-145.69;56.55;51957.25;5136197;27;20197;-81
2023/08/27 03:33:44;;;;;;;2.88;2.45;;;;;;;-145.69;56.54;51969.13;5137062;27;20227;-82
2023/08/27 03:36:10;;;;;;;2.80;2.20;;;;;;;-145.69;56.60;51935.47;5137072;27;20196;-82
2023/08/27 03:38:38;;;;;;;5.97;2.60;;;;;;;-145.69;56.37;51897.84;5136610;27;20763;-82
2023/08/27 03:41:04;;;;;;;5.60;2.90;;;;;;;-145.69;56.23;51939.41;5136937;27;20197;-82
2023/08/27 03:43:31;;;;;;;3.95;1.98;;;;;;;-145.69;56.25;51935.47;5136249;27;20221;-81
2023/08/27 03:45:57;;;;;;;2.40;1.83;;;;;;;-145.69;56.00;51941.41;5137078;27;20196;-81
2023/08/27 03:48:24;;;;;;;4.05;1.95;;;;;;;-145.69;56.45;51957.25;5136978;27;20251;-81
2023/08/27 03:50:51;;;;;;;3.67;2.28;;;;;;;-145.69;55.91;51945.34;5134861;27;20197;-81
2023/08/27 03:53:17;;;;;;;2.30;2.03;;;;;;;-145.69;55.77;51937.44;5135500;27;20215;-81
2023/08/27 03:55:45;;;;;;;5.40;2.25;;;;;;;-145.69;56.15;51909.72;5136723;27;20204;-82
2023/08/27 03:58:12;;;;;;;5.72;1.70;;;;;;;-145.69;56.25;51953.28;5136726;27;20193;-81
2023/08/27 04:00:39;;;;;;;3.17;1.60;;;;;;;-145.69;56.60;51941.41;5136229;27;20192;-81
2023/08/27 04:03:06;;;;;;;2.50;1.65;;;;;;;-145.69;56.12;51953.28;5135815;27;20189;-80
2023/08/27 04:05:32;;;;;;;2.90;1.40;;;;;;;-145.69;55.88;51953.28;5136383;27;20189;-81
2023/08/27 04:07:58;;;;;;;2.95;1.30;;;;;;;-145.69;56.51;51957.25;5136799;27;20274;-82
2023/08/27 04:10:25;;;;;;;2.47;1.23;;;;;;;-145.69;55.81;51941.41;5136555;27;20196;-83
2023/08/27 04:12:54;;;;;;;1.25;1.02;;;;;;;-145.69;56.07;51939.41;5136613;27;20193;-82
2023/08/27 04:15:20;;;;;;;3.33;1.38;;;;;;;-145.69;55.49;51977.03;5136946;27;20288;-81
2023/08/27 04:17:47;;;;;;;1.20;1.10;;;;;;;-145.69;55.64;51957.25;5136628;27;20212;-81
2023/08/27 04:20:13;;;;;;;1.67;1.08;;;;;;;-145.69;55.31;51969.13;5135325;27;20720;-84
2023/08/27 04:22:40;;;;;;;2.03;1.25;;;;;;;-145.69;55.94;51941.41;5136973;27;20197;-83
2023/08/27 04:25:07;;;;;;;2.22;1.30;;;;;;;-145.69;56.18;51961.19;5136849;27;20222;-83
2023/08/27 04:27:34;;;;;;;2.60;1.10;;;;;;;-145.69;55.33;51969.13;5136926;27;20232;-81
2023/08/27 04:30:02;;;;;;;2.15;1.35;;;;;;;-145.69;55.74;51953.28;5136580;27;20220;-83
2023/08/27 04:32:29;;;;;;;2.15;1.23;;;;;;;-145.69;55.67;51984.97;5135669;27;20197;-82
2023/08/27 04:34:55;;;;;;;2.47;1.42;;;;;;;-145.69;55.28;51953.28;5135256;27;20205;-82
2023/08/27 04:37:22;;;;;;;1.88;1.20;;;;;;;-145.69;55.46;51957.25;5136462;27;20203;-83
2023/08/27 04:39:48;;;;;;;2.80;1.30;;;;;;;-145.69;54.90;51935.47;5138886;27;20205;-83
2023/08/27 04:42:15;;;;;;;1.65;1.13;;;;;;;-145.69;54.84;51973.06;5136241;27;20235;-81
2023/08/27 04:44:41;;;;;;;2.05;1.27;;;;;;;-145.69;54.73;51973.06;5136250;27;20203;-82
2023/08/27 04:47:09;;;;;;;2.45;1.10;;;;;;;-145.69;53.83;51957.25;5136023;27;20208;-83
2023/08/27 04:49:36;;;;;;;1.40;1.05;;;;;;;-145.69;54.66;51951.28;5136076;27;20200;-83
2023/08/27 04:52:03;;;;;;;2.80;1.10;;;;;;;-145.69;54.71;51955.25;5135446;27;20197;-82
2023/08/27 04:54:30;;;;;;;2.92;1.42;;;;;;;-145.69;54.97;51945.34;5136157;27;20205;-84
2023/08/27 04:56:56;;;;;;;2.40;1.30;;;;;;;-145.69;54.97;51953.28;5135930;27;20208;-83
2023/08/27 04:59:24;;;;;;;2.95;1.30;;;;;;;-145.69;54.05;51939.41;5136410;27;20204;-82
2023/08/27 05:01:51;;;;;;;2.78;1.50;;;;;;;-145.69;54.43;51949.31;5136190;27;20293;-83
2023/08/27 05:04:19;;;;;;;2.67;1.38;;;;;;;-145.69;53.92;51933.47;5136313;27;20228;-82
2023/08/27 05:06:46;;;;;;;3.83;1.55;;;;;;;-145.69;54.28;51937.44;5136135;27;20201;-82
2023/08/27 05:09:12;;;;;;;1.48;1.30;;;;;;;-145.69;54.21;51949.31;5135870;27;20235;-82
2023/08/27 05:11:39;;;;;;;2.25;1.48;;;;;;;-145.69;54.28;51953.28;5135759;27;20197;-82
2023/08/27 05:14:05;;;;;;;2.20;1.40;;;;;;;-145.69;54.79;51969.13;5135889;27;20200;-82
2023/08/27 05:16:34;;;;;;;3.40;1.30;;;;;;;-145.69;54.86;51941.41;5135750;27;20651;-82
2023/08/27 05:19:00;;;;;;;4.07;1.83;;;;;;;-145.69;54.38;51984.97;5135878;27;20197;-82
2023/08/27 05:21:28;;;;;;;1.25;1.15;;;;;;;-145.69;54.80;51961.19;5136135;27;20201;-81
2023/08/27 05:23:55;;;;;;;1.90;1.30;;;;;;;-145.69;54.68;51955.25;5136957;27;20224;-82
2023/08/27 05:26:21;;;;;;;2.30;1.40;;;;;;;-145.69;54.58;51935.47;5135094;27;20200;-83
2023/08/27 05:28:48;;;;;;;2.03;1.40;;;;;;;-145.69;54.69;51957.25;5136041;27;20232;-82
2023/08/27 05:31:14;;;;;;;1.10;1.00;;;;;;;-145.69;54.53;51925.56;5136065;27;20200;-83
2023/08/27 05:33:41;;;;;;;1.95;1.30;;;;;;;-145.69;54.18;51939.41;5135872;27;20211;-83
2023/08/27 05:36:08;;;;;;;3.85;1.35;;;;;;;-145.69;54.03;51935.47;5134037;27;20200;-83
2023/08/27 05:38:35;;;;;;;2.00;1.20;;;;;;;-145.69;53.54;51943.38;5134783;27;20571;-82
2023/08/27 05:41:02;;;;;;;2.40;1.10;;;;;;;-145.69;53.25;51937.44;5135623;27;20568;-82
2023/08/27 05:43:28;;;;;;;3.67;1.30;;;;;;;-145.69;53.60;51961.19;5134888;27;20245;-82
2023/08/27 05:45:55;;;;;;;2.28;1.13;;;;;;;-145.69;52.78;51951.28;5133884;27;20201;-82
2023/08/27 05:48:22;;;;;;;8.07;1.63;;;;;;;-145.69;52.81;51955.25;5134219;27;20229;-82
2023/08/27 05:50:51;;;;;;;2.50;1.40;;;;;;;-145.69;53.64;51939.41;5134224;27;20425;-82
2023/08/27 05:53:20;;;;;;;1.75;1.00;;;;;;;-145.69;52.97;51923.56;5135313;27;20196;-83
2023/08/27 05:55:48;;;;;;;2.05;1.27;;;;;;;-145.69;53.00;51909.72;5133962;27;20686;-83
2023/08/27 05:58:15;;;;;;;2.47;1.25;;;;;;;-145.69;51.92;51899.81;5135678;27;20208;-83
2023/08/27 06:00:42;;;;;;;2.65;1.50;;;;;;;-145.69;52.12;51927.53;5135218;27;20279;-83
2023/08/27 06:03:08;;;;;;;2.55;1.10;;;;;;;-145.69;52.51;51925.56;5134978;27;20189;-83
2023/08/27 06:05:35;;;;;;;1.67;1.30;;;;;;;-145.69;52.05;51925.56;5135016;27;20204;-82
2023/08/27 06:08:04;;;;;;;2.30;1.27;;;;;;;-145.69;50.99;51905.75;5133706;27;20736;-83
2023/08/27 06:10:31;;;;;;;2.35;1.35;;;;;;;-145.69;49.95;51905.75;5134999;27;20251;-82
2023/08/27 06:12:59;;;;;;;3.00;1.33;;;;;;;-145.69;49.40;51905.75;5135498;27;20204;-83
2023/08/27 06:15:27;;;;;;;1.70;1.10;;;;;;;-145.69;49.72;51909.72;5134020;27;20208;-83
2023/08/27 06:17:54;;;;;;;2.53;1.40;;;;;;;-145.69;49.92;51929.50;5155330;27;20378;-83
2023/08/27 06:20:20;;;;;;;2.85;1.58;;;;;;;-145.69;49.40;51929.50;5134356;27;20687;-83
2023/08/27 06:22:52;;;;;;;4.72;1.52;;;;;;;-145.69;48.22;51921.59;5134651;27;20729;-82
2023/08/27 06:25:22;;;;;;;2.63;1.45;;;;;;;-145.69;47.84;51921.59;5134695;27;20540;-82
2023/08/27 06:27:49;;;;;;;1.90;1.20;;;;;;;-145.69;47.82;51965.16;5134249;27;20209;-82
2023/08/27 06:30:17;;;;;;;3.20;1.45;;;;;;;-145.69;47.81;51905.75;5134069;27;20200;-83
2023/08/27 06:32:43;;;;;;;2.15;1.50;;;;;;;-145.69;47.61;51917.63;5134255;27;20204;-83
2023/08/27 06:35:10;;;;;;;2.75;1.50;;;;;;;-145.69;47.48;51911.69;5134031;27;20196;-83
2023/08/27 06:37:36;;;;;;;3.50;1.80;;;;;;;-145.69;47.60;51941.41;5133775;27;20198;-82
2023/08/27 06:40:03;;;;;;;2.72;1.40;;;;;;;-145.69;48.34;51925.56;5134201;27;20200;-82
2023/08/27 06:42:30;;;;;;;2.38;1.48;;;;;;;-145.69;48.16;51897.84;5134094;27;20225;-82
2023/08/27 06:44:56;;;;;;;2.60;1.60;;;;;;;-145.69;47.74;51913.69;5133659;27;20555;-82
2023/08/27 06:47:24;;;;;;;2.47;1.50;;;;;;;-145.69;47.74;51901.78;5134052;27;20227;-81
2023/08/27 06:49:51;;;;;;;2.63;1.40;;;;;;;-145.69;48.13;51927.53;5133935;27;20230;-83
2023/08/27 06:52:20;;;;;;;2.03;1.23;;;;;;;-145.69;47.78;51891.88;5132441;27;20536;-82
2023/08/27 06:54:46;;;;;;;2.17;1.50;;;;;;;-145.69;47.68;51895.84;5133376;28;20666;-82
2023/08/27 06:57:13;;;;;;;5.22;1.48;;;;;;;-145.69;47.10;51901.78;5133973;27;20208;-82
2023/08/27 06:59:39;;;;;;;1.77;1.38;;;;;;;-145.69;47.22;51905.75;5136564;27;20591;-82
2023/08/27 07:02:07;;;;;;;5.35;1.73;;;;;;;-145.69;47.83;51891.88;5138090;27;20193;-83
2023/08/27 07:04:35;;;;;;;2.83;1.50;;;;;;;-145.69;46.94;51880.00;5137824;27;20188;-83
2023/08/27 07:07:01;;;;;;;5.97;1.23;;;;;;;-145.69;47.32;51905.75;5137785;27;20204;-82
2023/08/27 07:09:28;;;;;;;2.08;1.20;;;;;;;-145.69;45.98;51909.72;5136743;27;20228;-83
2023/08/27 07:11:58;;;;;;;2.95;1.23;;;;;;;-145.69;45.19;51887.94;5138397;27;20239;-82
2023/08/27 07:14:30;;;;;;;2.13;1.15;;;;;;;-145.69;45.21;51907.72;5138201;27;20206;-82
2023/08/27 07:16:56;;;;;;;1.90;1.30;;;;;;;-145.69;46.09;51864.16;5137994;27;20686;-82
2023/08/27 07:19:23;;;;;;;3.30;1.50;;;;;;;-145.69;46.51;51891.88;5137409;27;20922;-82
2023/08/27 07:21:54;;;;;;;5.45;1.75;;;;;;;-145.69;46.05;51885.94;5138193;27;20207;-82
2023/08/27 07:24:23;;;;;;;3.33;1.70;;;;;;;-145.69;46.38;51911.69;5138135;27;20201;-82
2023/08/27 07:26:50;;;;;;;2.60;1.33;;;;;;;-145.69;46.69;51880.00;5137759;27;20196;-82
2023/08/27 07:29:16;;;;;;;3.67;1.33;;;;;;;-145.69;46.07;51885.94;5137838;27;20292;-83
2023/08/27 07:31:43;;;;;;;2.97;1.25;;;;;;;-145.69;46.39;51907.72;5138306;27;20631;-81
2023/08/27 07:34:09;;;;;;;2.08;1.20;;;;;;;-145.69;46.16;51901.78;5137419;27;20209;-81
2023/08/27 07:36:36;;;;;;;3.50;1.10;;;;;;;-145.69;45.10;51887.94;5131436;27;20212;-81
2023/08/27 07:39:04;;;;;;;6.35;1.48;;;;;;;-145.69;44.91;51897.84;5137926;27;20193;-81
2023/08/27 07:41:31;;;;;;;3.90;1.50;;;;;;;-145.69;44.59;51887.94;5137270;27;20200;-82
2023/08/27 07:44:00;;;;;;;2.08;1.17;;;;;;;-145.69;44.56;51868.13;5137971;27;20208;-83
2023/08/27 07:46:27;;;;;;;2.97;1.25;;;;;;;-145.69;44.22;51889.91;5136688;27;20203;-81
2023/08/27 07:48:53;;;;;;;5.50;1.00;;;;;;;-145.69;44.43;51850.31;5137257;27;20223;-80
2023/08/27 07:51:23;;;;;;;2.95;1.40;;;;;;;-145.69;43.64;51899.81;5137083;27;20199;-80
2023/08/27 07:53:49;;;;;;;2.58;1.20;;;;;;;-145.69;44.32;51878.03;5137241;27;20203;-81
2023/08/27 07:56:17;;;;;;;1.70;1.17;;;;;;;-145.69;44.08;51868.13;5136713;27;20200;-82
2023/08/27 07:58:45;;;;;;;1.13;0.85;;;;;;;-145.69;44.45;51872.09;5136883;27;20188;-80
2023/08/27 08:01:11;;;;;;;2.60;1.25;;;;;;;-145.69;44.63;51895.84;5136455;27;20276;-82
2023/08/27 08:03:38;;;;;;;2.47;1.15;;;;;;;-145.69;43.53;51876.06;5136703;27;20204;-80
2023/08/27 08:06:05;;;;;;;1.20;0.93;;;;;;;-145.69;44.46;51866.16;5136927;27;20205;-82
2023/08/27 08:08:36;;;;;;;2.05;1.17;;;;;;;-145.69;45.68;51882.00;5136419;27;20220;-82
2023/08/27 08:11:08;;;;;;;3.40;1.30;;;;;;;-145.69;45.37;51893.88;5134550;27;20188;-82
2023/08/27 08:13:41;;;;;;;3.17;1.30;;;;;;;-145.69;45.82;51907.72;5136591;27;20200;-81
2023/08/27 08:16:10;;;;;;;4.25;1.50;;;;;;;-145.69;46.14;51901.78;5136765;27;20239;-81
2023/08/27 08:18:37;;;;;;;1.50;1.08;;;;;;;-145.69;46.24;51885.94;5136777;27;20204;-82
2023/08/27 08:21:04;;;;;;;2.33;1.17;;;;;;;-145.69;47.12;51895.84;5136272;27;20193;-82
2023/08/27 08:23:31;;;;;;;2.88;1.55;;;;;;;-145.69;46.93;51913.69;5136506;27;20257;-82
2023/08/27 08:25:59;;;;;;;2.22;1.20;;;;;;;-145.69;46.59;51870.13;5136456;27;20201;-81
2023/08/27 08:28:26;;;;;;;1.38;1.00;;;;;;;-145.69;46.05;51891.88;5136601;27;20197;-81
2023/08/27 08:30:53;;;;;;;2.38;1.25;;;;;;;-145.69;46.03;51868.13;5135626;27;20309;-82
2023/08/27 08:33:20;;;;;;;2.40;1.35;;;;;;;-145.69;46.59;51878.03;5135888;27;20217;-82
2023/08/27 08:35:49;;;;;;;4.43;1.40;;;;;;;-145.69;46.26;51870.13;5136252;27;20555;-82
2023/08/27 08:38:16;;;;;;;2.35;1.10;;;;;;;-145.69;45.75;51901.78;5136167;27;20205;-82
2023/08/27 08:40:45;;;;;;;5.05;1.23;;;;;;;-145.69;45.10;51850.31;5134634;27;20254;-81
2023/08/27 08:43:20;;;;;;;2.50;1.30;;;;;;;-145.69;44.44;51866.16;5135155;27;20807;-82
2023/08/27 08:45:56;;;;;;;2.20;1.20;;;;;;;-145.69;43.62;51878.03;5136109;27;20658;-82
2023/08/27 08:48:26;;;;;;;3.63;1.27;;;;;;;-145.69;44.46;51880.00;5135060;27;20437;-82
2023/08/27 08:50:54;;;;;;;3.92;1.20;;;;;;;-145.69;43.84;51854.28;5135958;27;20201;-81
2023/08/27 08:53:25;;;;;;;1.60;1.08;;;;;;;-145.69;43.16;51870.13;5136191;27;20200;-82
2023/08/27 08:56:08;;;;;;;2.22;1.10;;;;;;;-145.69;43.26;51862.19;5135234;27;20643;-82
2023/08/27 08:58:37;;;;;;;1.83;1.05;;;;;;;-145.69;43.48;51874.06;5135586;27;20205;-81
2023/08/27 09:01:05;;;;;;;3.42;1.13;;;;;;;-145.69;43.37;51885.94;5135453;27;20224;-81
2023/08/27 09:03:34;;;;;;;4.47;1.30;;;;;;;-145.69;42.62;51862.19;5135423;27;20193;-81
2023/08/27 09:06:01;;;;;;;4.45;1.30;;;;;;;-145.69;41.99;51862.19;5135324;27;20188;-80
2023/08/27 09:08:29;;;;;;;2.38;0.95;;;;;;;-145.69;42.04;51866.16;5135490;27;20254;-81
2023/08/27 09:10:57;;;;;;;4.35;1.42;;;;;;;-145.69;42.10;51848.34;5135428;27;20200;-80
2023/08/27 09:13:24;;;;;;;1.63;0.90;;;;;;;-145.69;42.55;51830.50;5134949;27;20238;-80
2023/08/27 09:15:54;;;;;;;3.20;1.25;;;;;;;-145.69;42.04;51858.22;5135388;27;20199;-80
2023/08/27 09:18:23;;;;;;;1.88;1.10;;;;;;;-145.69;41.46;51826.56;5134892;27;20214;-81
2023/08/27 09:20:51;;;;;;;1.48;1.00;;;;;;;-145.69;41.34;51826.56;5135026;27;20200;-81
2023/08/27 09:23:18;;;;;;;3.15;1.05;;;;;;;-145.69;40.97;51822.59;5134171;27;20617;-80
2023/08/27 09:25:49;;;;;;;2.15;0.90;;;;;;;-145.69;40.43;51828.53;5135298;27;20204;-81
2023/08/27 09:28:18;;;;;;;1.20;0.93;;;;;;;-145.69;40.21;51834.47;5134904;27;20288;-80
2023/08/27 09:30:47;;;;;;;1.58;0.77;;;;;;;-145.69;40.94;51830.50;5134837;27;20579;-81
2023/08/27 09:33:14;;;;;;;1.85;1.10;;;;;;;-145.69;40.76;51842.38;5134093;27;20433;-81
2023/08/27 09:35:42;;;;;;;3.90;1.08;;;;;;;-145.69;40.29;51806.75;5134830;27;20200;-80
2023/08/27 09:38:13;;;;;;;2.72;1.30;;;;;;;-145.69;40.24;51812.69;5135032;27;20243;-81
2023/08/27 09:40:40;;;;;;;1.88;1.02;;;;;;;-145.69;39.82;51786.94;5134816;27;20208;-80
2023/08/27 09:43:08;;;;;;;1.30;0.80;;;;;;;-145.69;39.19;51775.06;5127982;27;20347;-81
2023/08/27 09:45:37;;;;;;;2.10;0.93;;;;;;;-145.69;38.36;51810.72;5131759;27;20193;-79
2023/08/27 09:48:05;;;;;;;4.63;1.25;;;;;;;-145.69;38.60;51806.75;5134788;27;20655;-81
2023/08/27 09:50:33;;;;;;;1.48;0.73;;;;;;;-145.69;38.83;51832.50;5134567;27;20228;-80
2023/08/27 09:53:08;;;;;;;1.52;0.90;;;;;;;-145.69;38.91;51786.94;5134687;27;20200;-81
2023/08/27 09:55:35;;;;;;;1.00;0.90;;;;;;;-145.69;39.39;51844.38;5134015;27;20554;-80
2023/08/27 09:58:05;;;;;;;3.25;1.30;;;;;;;-145.69;39.87;51834.47;5134808;27;20616;-81
2023/08/27 10:00:32;;;;;;;1.30;0.80;;;;;;;-145.69;39.77;51788.94;5134356;27;20188;-81
2023/08/27 10:02:59;;;;;;;3.03;0.80;;;;;;;-145.69;39.76;51820.59;5133915;27;20208;-81
2023/08/27 10:05:32;;;;;;;1.58;0.90;;;;;;;-145.69;39.65;51798.81;5134396;27;20552;-82
2023/08/27 10:08:00;;;;;;;3.90;1.13;;;;;;;-145.69;39.78;51816.66;5134036;27;20192;-81
2023/08/27 10:10:36;;;;;;;2.67;1.25;;;;;;;-145.69;39.73;51830.50;5133565;27;20227;-81
2023/08/27 10:13:07;;;;;;;1.77;0.95;;;;;;;-145.69;39.89;51808.72;5134216;27;20287;-81
2023/08/27 10:15:40;;;;;;;2.33;0.90;;;;;;;-145.69;39.52;51779.03;5134278;27;20231;-81
2023/08/27 10:18:13;;;;;;;1.88;0.90;;;;;;;-145.69;39.11;51810.72;5134356;27;20196;-81
2023/08/27 10:20:42;;;;;;;1.25;0.75;;;;;;;-145.69;38.98;51802.78;5133731;27;20516;-80
2023/08/27 10:23:09;;;;;;;1.70;1.10;;;;;;;-145.69;38.86;51816.66;5133644;27;20193;-82
2023/08/27 10:25:39;;;;;;;2.83;0.80;;;;;;;-145.69;38.81;51800.81;5134242;27;20197;-80
2023/08/27 10:28:11;;;;;;;2.55;1.00;;;;;;;-145.69;38.99;51812.69;5134398;27;20196;-83
2023/08/27 10:30:38;;;;;;;1.02;0.80;;;;;;;-145.69;39.29;51812.69;5133756;27;20216;-82
2023/08/27 10:33:05;;;;;;;1.70;0.95;;;;;;;-145.69;40.01;51836.44;5134042;27;20203;-82
2023/08/27 10:35:37;;;;;;;1.38;0.90;;;;;;;-145.69;40.14;51826.56;5134024;27;20197;-81
2023/08/27 10:38:05;;;;;;;3.97;1.10;;;;;;;-145.69;40.33;51842.38;5133963;27;20203;-80
2023/08/27 10:40:36;;;;;;;1.83;1.02;;;;;;;-145.69;40.25;51826.56;5134289;27;20220;-81
2023/08/27 10:43:17;;;;;;;2.92;1.35;;;;;;;-145.69;40.09;51826.56;5121607;27;20236;-80
2023/08/27 10:45:45;;;;;;;3.42;1.10;;;;;;;-145.69;39.96;51802.78;5114557;27;20224;-80
2023/08/27 10:48:23;;;;;;;1.98;1.15;;;;;;;-145.69;39.83;51802.78;5127334;28;20452;-81
2023/08/27 10:50:54;;;;;;;1.70;1.10;;;;;;;-145.69;40.17;51822.59;5132274;27;20722;-81
2023/08/27 10:53:22;;;;;;;1.77;0.90;;;;;;;-145.69;39.60;51822.59;5129800;27;20204;-81
2023/08/27 10:55:51;;;;;;;3.83;1.13;;;;;;;-145.69;39.85;51822.59;5119262;27;20623;-80
2023/08/27 10:58:20;;;;;;;3.30;1.25;;;;;;;-145.69;39.88;51814.66;5127927;27;20196;-80
2023/08/27 11:01:04;;;;;;;1.48;1.00;;;;;;;-145.69;39.86;51816.66;5126633;27;20204;-80
2023/08/27 11:03:57;;;;;;;3.53;1.10;;;;;;;-145.69;39.88;51802.78;5125786;28;20699;-79
2023/08/27 11:06:45;;;;;;;1.80;1.10;;;;;;;-145.69;39.71;51816.66;5122760;27;20567;-81
2023/08/27 11:09:30;;;;;;;2.22;1.17;;;;;;;-145.69;40.11;51816.66;5120112;27;20254;-80
2023/08/27 11:11:59;;;;;;;1.30;0.95;;;;;;;-145.69;40.15;51808.72;5123204;27;20258;-80
2023/08/27 11:14:27;;;;;;;2.85;1.20;;;;;;;-145.69;39.87;51838.44;5123545;27;20753;-81
2023/08/27 11:16:56;;;;;;;4.25;1.00;;;;;;;-145.69;39.59;51820.59;5126249;27;20655;-81
2023/08/27 11:19:30;;;;;;;3.40;1.10;;;;;;;-145.69;39.17;51818.63;5122065;28;20310;-80
2023/08/27 11:22:06;;;;;;;1.75;1.25;;;;;;;-145.69;38.80;51790.91;5131037;28;20193;-81
2023/08/27 11:24:32;;;;;;;2.15;1.40;;;;;;;-145.69;38.83;51767.16;5125563;28;20201;-81